Impacts METAR Board
IDs:

KRKP - Rockport/Aransas Cnt, TX, US

Updated at: 0500 UTC 19 Aug 2019
Potential Impact None Slight Moderate High
Time 18/17Z 18/18Z 18/19Z 18/20Z 18/21Z 18/22Z 18/23Z 19/00Z 19/01Z 19/02Z 19/03Z 19/04Z 19/05Z
Temp89 91 92 92 91 90 89 87 85 84 84 84 84
Dewpt78 77 77 78 77 77 77 78 77 78 78 78 78
Altim29.92 29.90 29.90 29.88 29.86 29.85 29.85 29.85 29.85 29.87 29.89 29.90 29.92
VIS8 8 9 9 9 9 9 9 8 9 9 9 9
CIG34 -- -- -- -- -- -- -- -- -- -- -- --
CoverBKNSCTCLRCLRFEWCLRCLRFEWCLRCLRCLRCLRCLR
FltCatVFRVFRVFRVFRVFRVFRVFRVFRVFRVFRVFRVFRVFR
WX--------------------------
WDir160170160150150150150140150140140150150
WSpd14 10 13 12 13 14 11 15 12 13 11 8 7
WGst19 20 18 23 24 22 22 -- -- 18 -- -- --
Raw hourly METARs
KRKP 181653Z AUTO 16014G19KT 8SM SCT023 BKN034 32/26 A2992 RMK AO2 SLP131 T03170256
KRKP 181753Z AUTO 17010G20KT 140V230 8SM SCT020 SCT027 33/25 A2990 RMK AO2 SLP127 T03280250 10328 20278 56005
KRKP 181853Z AUTO 16013G18KT 9SM CLR 33/25 A2990 RMK AO2 SLP125 T03330250
KRKP 181953Z AUTO 15012G23KT 9SM CLR 33/26 A2988 RMK AO2 SLP120 T03330256
KRKP 182053Z AUTO 15013G24KT 9SM FEW022 33/25 A2986 RMK AO2 SLP112 T03280250 58015
KRKP 182153Z AUTO 15014G22KT 9SM CLR 32/25 A2985 RMK AO2 SLP110 T03220250
KRKP 182253Z AUTO 15011G22KT 9SM CLR 32/25 A2985 RMK AO2 SLP108 T03170250
KRKP 182353Z AUTO 14015KT 9SM FEW019 31/26 A2985 RMK AO2 SLP108 T03060256 10339 20306 56004
KRKP 190053Z AUTO 15012KT 8SM CLR 29/25 A2985 RMK AO2 SLP111 T02940250
KRKP 190153Z AUTO 14013G18KT 9SM CLR 29/26 A2987 RMK AO2 SLP114 T02890256
KRKP 190253Z AUTO 14011KT 9SM CLR 29/26 A2989 RMK AO2 SLP122 T02890256 53014
KRKP 190353Z AUTO 15008KT 9SM CLR 29/26 A2990 RMK AO2 SLP127 T02890256
KRKP 190453Z AUTO 15007KT 9SM CLR 29/26 A2992 RMK AO2 SLP131 T02890256



Page loaded:  05:43 UTC  |   10:43 PM Pacific  |   11:43 PM Mountain  |   12:43 AM Central  |   01:43 AM Eastern

 

ADVISORIES

FORECASTS

FORECASTS

OBSERVATIONS

USER TOOLS

ABOUT US